createdAt,value
2023-02-04T00:00:07.735Z,52.91
2023-02-04T00:02:34.988Z,52.43
2023-02-04T00:05:01.750Z,52.37
2023-02-04T00:07:28.382Z,52.84
2023-02-04T00:09:55.122Z,54.12
2023-02-04T00:12:21.978Z,53.75
2023-02-04T00:14:48.631Z,58.80
2023-02-04T00:17:15.455Z,61.30
2023-02-04T00:19:42.788Z,61.32
2023-02-04T00:22:09.784Z,63.26
2023-02-04T00:24:37.734Z,64.21
2023-02-04T00:27:05.540Z,62.85
2023-02-04T00:29:32.166Z,66.10
2023-02-04T00:31:58.907Z,64.56
2023-02-04T00:34:25.962Z,66.09
2023-02-04T00:36:52.576Z,65.23
2023-02-04T00:39:19.248Z,66.25
2023-02-04T00:41:45.884Z,66.83
2023-02-04T00:44:14.180Z,60.90
2023-02-04T00:46:43.726Z,61.21
2023-02-04T00:49:11.160Z,60.48
2023-02-04T00:51:39.430Z,57.81
2023-02-04T00:54:07.331Z,56.59
2023-02-04T00:56:35.432Z,56.70
2023-02-04T00:59:02.175Z,60.33
2023-02-04T01:01:28.953Z,59.12
2023-02-04T01:03:55.648Z,62.38
2023-02-04T01:06:22.302Z,65.27
2023-02-04T01:08:49.083Z,63.84
2023-02-04T01:11:16.012Z,62.38
2023-02-04T01:13:43.096Z,63.52
2023-02-04T01:16:09.925Z,72.84
2023-02-04T01:18:36.867Z,70.81
2023-02-04T01:21:03.695Z,74.86
2023-02-04T01:23:30.402Z,76.24
2023-02-04T01:25:57.217Z,75.14
2023-02-04T01:28:24.072Z,73.41
2023-02-04T01:30:50.746Z,71.40
2023-02-04T01:33:17.508Z,70.02
2023-02-04T01:35:44.161Z,73.71
2023-02-04T01:38:10.762Z,69.80
2023-02-04T01:40:37.624Z,69.84
2023-02-04T01:43:04.568Z,75.48
2023-02-04T01:45:34.456Z,72.80
2023-02-04T01:48:04.071Z,70.32
2023-02-04T01:50:31.161Z,74.33
2023-02-04T01:52:58.494Z,71.41
2023-02-04T01:55:28.419Z,75.41
2023-02-04T01:57:56.159Z,76.91
2023-02-04T02:00:30.042Z,73.72
2023-02-04T02:02:57.842Z,69.30
2023-02-04T02:05:29.139Z,70.02
2023-02-04T02:07:58.733Z,67.36
2023-02-04T02:10:25.865Z,71.46
2023-02-04T02:12:55.278Z,66.79
2023-02-04T02:15:22.230Z,62.98
2023-02-04T02:17:49.463Z,60.37
2023-02-04T02:20:17.944Z,59.05
2023-02-04T02:23:06.316Z,56.68
2023-02-04T02:25:33.645Z,56.12
2023-02-04T02:28:01.815Z,56.02
2023-02-04T02:30:29.690Z,56.27
2023-02-04T02:32:57.568Z,55.94
2023-02-04T02:35:24.385Z,55.40
2023-02-04T02:37:51.383Z,55.12
2023-02-04T02:40:18.820Z,53.94
2023-02-04T02:42:51.002Z,55.42
2023-02-04T02:45:27.149Z,55.06
2023-02-04T02:47:56.325Z,54.65
2023-02-04T02:50:25.973Z,54.91
2023-02-04T02:52:53.840Z,55.97
2023-02-04T02:55:23.817Z,58.91
2023-02-04T02:57:52.221Z,57.48
2023-02-04T03:00:25.177Z,57.73
2023-02-04T03:03:04.655Z,58.85
2023-02-04T03:05:36.434Z,57.54
2023-02-04T03:08:03.800Z,57.76
2023-02-04T03:10:31.068Z,57.23
2023-02-04T03:12:59.266Z,55.05
2023-02-04T03:15:26.467Z,56.92
2023-02-04T03:17:56.581Z,58.23
2023-02-04T03:20:25.520Z,57.02
2023-02-04T03:22:52.793Z,57.06
2023-02-04T03:25:20.519Z,54.57
2023-02-04T03:27:47.579Z,53.77
2023-02-04T03:30:14.253Z,54.04
2023-02-04T03:32:41.830Z,54.29
2023-02-04T03:35:09.395Z,55.12
2023-02-04T03:37:35.991Z,54.37
2023-02-04T03:40:02.733Z,53.57
2023-02-04T03:42:29.302Z,55.12
2023-02-04T03:44:56.028Z,56.24
2023-02-04T03:47:22.644Z,56.80
2023-02-04T03:49:49.292Z,56.21
2023-02-04T03:52:15.967Z,55.50
2023-02-04T03:54:42.630Z,56.10
2023-02-04T03:57:10.019Z,56.94
2023-02-04T03:59:36.712Z,56.39
2023-02-04T04:02:04.004Z,55.31
2023-02-04T04:04:30.604Z,56.56
2023-02-04T04:06:57.172Z,56.95
2023-02-04T04:09:23.746Z,56.60
2023-02-04T04:11:50.383Z,58.20
2023-02-04T04:14:16.997Z,58.41
2023-02-04T04:16:43.594Z,57.24
2023-02-04T04:19:10.172Z,60.02
2023-02-04T04:21:36.814Z,61.47
2023-02-04T04:24:03.516Z,59.24
2023-02-04T04:26:30.160Z,58.57
2023-02-04T04:28:56.774Z,62.15
2023-02-04T04:31:23.432Z,62.69
2023-02-04T04:33:50.115Z,60.59
2023-02-04T04:36:16.770Z,59.19
2023-02-04T04:38:43.405Z,61.16
2023-02-04T04:41:09.992Z,60.91
2023-02-04T04:43:36.583Z,61.61
2023-02-04T04:46:03.176Z,61.41
2023-02-04T04:48:29.807Z,60.01
2023-02-04T04:50:56.412Z,61.33
2023-02-04T04:53:23.006Z,60.45
2023-02-04T04:55:49.583Z,60.85
2023-02-04T04:58:16.256Z,61.92
2023-02-04T05:00:42.925Z,61.22
2023-02-04T05:03:09.604Z,62.54
2023-02-04T05:05:39.994Z,63.75
2023-02-04T05:08:10.975Z,65.07
2023-02-04T05:10:37.775Z,66.54
2023-02-04T05:13:04.434Z,67.19
2023-02-04T05:15:31.128Z,69.16
2023-02-04T05:17:58.474Z,68.60
2023-02-04T05:20:25.684Z,68.50
2023-02-04T05:22:52.446Z,67.93
2023-02-04T05:25:19.218Z,70.10
2023-02-04T05:27:46.338Z,69.65
2023-02-04T05:30:14.156Z,69.67
2023-02-04T05:32:41.856Z,69.65
2023-02-04T05:35:08.730Z,70.37
2023-02-04T05:37:35.378Z,69.41
2023-02-04T05:40:02.347Z,69.98
2023-02-04T05:42:28.958Z,69.30
2023-02-04T05:44:55.566Z,68.36
2023-02-04T05:47:22.219Z,68.17
2023-02-04T05:49:48.852Z,68.26
2023-02-04T05:52:15.521Z,66.62
2023-02-04T05:54:47.850Z,67.40
2023-02-04T05:57:14.513Z,67.05
2023-02-04T05:59:41.110Z,69.34
2023-02-04T06:02:07.757Z,68.11
2023-02-04T06:04:34.402Z,68.14
2023-02-04T06:07:03.497Z,68.67
2023-02-04T06:09:30.104Z,67.45
2023-02-04T06:11:57.651Z,68.44
2023-02-04T06:14:24.296Z,68.19
2023-02-04T06:16:50.968Z,70.46
2023-02-04T06:19:17.768Z,68.20
2023-02-04T06:21:44.431Z,68.70
2023-02-04T06:24:11.081Z,66.31
2023-02-04T06:26:38.502Z,65.03
2023-02-04T06:29:05.315Z,65.66
2023-02-04T06:31:32.114Z,66.80
2023-02-04T06:33:58.841Z,66.82
2023-02-04T06:36:25.508Z,64.99
2023-02-04T06:38:52.122Z,63.95
2023-02-04T06:41:18.682Z,62.62
2023-02-04T06:43:45.356Z,62.15
2023-02-04T06:46:11.984Z,62.16
2023-02-04T06:48:38.594Z,61.10
2023-02-04T06:51:05.691Z,60.48
2023-02-04T06:53:32.338Z,61.27
2023-02-04T06:55:58.942Z,62.13
2023-02-04T06:58:25.556Z,62.50
2023-02-04T07:00:52.224Z,59.61
2023-02-04T07:03:18.930Z,61.22
2023-02-04T07:05:45.539Z,62.15
2023-02-04T07:08:12.253Z,60.71
2023-02-04T07:10:38.930Z,60.43
2023-02-04T07:13:05.543Z,60.12
2023-02-04T07:15:32.302Z,59.94
2023-02-04T07:17:59.034Z,59.39
2023-02-04T07:20:25.618Z,60.40
2023-02-04T07:22:52.214Z,60.17
2023-02-04T07:25:18.831Z,60.21
2023-02-04T07:27:45.490Z,59.78
2023-02-04T07:30:12.932Z,58.58
2023-02-04T07:32:39.671Z,58.60
2023-02-04T07:35:06.830Z,59.18
2023-02-04T07:37:33.468Z,58.31
2023-02-04T07:40:00.134Z,58.93
2023-02-04T07:42:26.799Z,60.05
2023-02-04T07:44:53.379Z,58.16
2023-02-04T07:47:20.056Z,57.95
2023-02-04T07:49:46.707Z,58.37
2023-02-04T07:52:13.340Z,58.21
2023-02-04T07:54:39.912Z,57.46
2023-02-04T07:57:06.538Z,57.69
2023-02-04T07:59:33.090Z,56.76
2023-02-04T08:01:59.863Z,55.58
2023-02-04T08:04:26.535Z,55.57
2023-02-04T08:06:53.182Z,55.52
2023-02-04T08:09:19.821Z,56.03
2023-02-04T08:11:46.371Z,56.84
2023-02-04T08:14:13.177Z,57.95
2023-02-04T08:16:39.828Z,56.82
2023-02-04T08:19:06.399Z,57.41
2023-02-04T08:21:33.071Z,58.35
2023-02-04T08:23:59.673Z,56.59
2023-02-04T08:26:26.282Z,56.67
2023-02-04T08:28:53.080Z,55.87
2023-02-04T08:31:19.735Z,55.79
2023-02-04T08:33:46.340Z,57.80
2023-02-04T08:36:12.913Z,58.43
2023-02-04T08:38:41.197Z,60.56
2023-02-04T08:41:07.920Z,60.03
2023-02-04T08:43:34.573Z,62.08
2023-02-04T08:46:01.152Z,62.11
2023-02-04T08:48:27.761Z,62.63
2023-02-04T08:50:54.319Z,62.01
2023-02-04T08:53:20.901Z,61.51
2023-02-04T08:55:47.481Z,62.63
2023-02-04T08:58:14.111Z,61.00
2023-02-04T09:00:40.850Z,63.04
2023-02-04T09:03:07.940Z,62.50
2023-02-04T09:05:34.541Z,60.72
2023-02-04T09:08:01.168Z,59.35
2023-02-04T09:10:27.839Z,61.38
2023-02-04T09:12:56.133Z,62.74
2023-02-04T09:15:27.271Z,61.17
2023-02-04T09:17:55.752Z,60.90
2023-02-04T09:20:22.322Z,60.01
2023-02-04T09:22:50.319Z,58.99
2023-02-04T09:25:17.065Z,58.86
2023-02-04T09:27:43.768Z,59.34
2023-02-04T09:30:10.928Z,60.07
2023-02-04T09:32:37.575Z,60.84
2023-02-04T09:35:04.480Z,61.59
2023-02-04T09:37:31.128Z,61.67
2023-02-04T09:39:57.782Z,62.67
2023-02-04T09:42:26.373Z,62.66
2023-02-04T09:44:53.294Z,63.44
2023-02-04T09:47:24.148Z,64.76
2023-02-04T09:49:50.781Z,67.48
2023-02-04T09:52:19.671Z,66.58
2023-02-04T09:54:46.692Z,67.79
2023-02-04T09:57:16.975Z,68.25
2023-02-04T09:59:44.628Z,69.71
2023-02-04T10:02:25.284Z,68.09
2023-02-04T10:04:55.009Z,64.99
2023-02-04T10:07:25.206Z,66.40
2023-02-04T10:09:54.372Z,66.44
2023-02-04T10:12:21.812Z,65.59
2023-02-04T10:14:48.825Z,65.39
2023-02-04T10:17:22.072Z,68.84
2023-02-04T10:19:49.639Z,67.63
2023-02-04T10:22:19.396Z,67.17
2023-02-04T10:24:46.115Z,67.45
2023-02-04T10:27:17.678Z,67.71
2023-02-04T10:29:58.673Z,66.32
2023-02-04T10:32:31.609Z,65.55
2023-02-04T10:35:03.194Z,66.09
2023-02-04T10:37:30.847Z,66.29
2023-02-04T10:39:58.046Z,70.12
2023-02-04T10:42:27.137Z,71.37
2023-02-04T10:44:54.308Z,69.40
2023-02-04T10:47:27.230Z,71.05
2023-02-04T10:50:18.364Z,70.64
2023-02-04T10:52:49.744Z,71.91
2023-02-04T10:55:22.549Z,72.02
2023-02-04T10:57:51.814Z,72.82
2023-02-04T11:00:21.609Z,70.89
2023-02-04T11:03:08.249Z,70.26
2023-02-04T11:05:36.336Z,71.92
2023-02-04T11:08:19.526Z,69.94
2023-02-04T11:10:46.693Z,70.88
2023-02-04T11:13:26.339Z,70.58
2023-02-04T11:16:10.995Z,71.00
2023-02-04T11:18:53.098Z,69.87
2023-02-04T11:21:42.434Z,72.28
2023-02-04T11:24:12.045Z,69.90
2023-02-04T11:26:53.142Z,71.99
2023-02-04T11:29:34.901Z,73.81
2023-02-04T11:32:26.034Z,72.08
2023-02-04T11:34:53.130Z,70.07
2023-02-04T11:37:36.150Z,70.71
2023-02-04T11:40:20.348Z,69.48
2023-02-04T11:42:48.299Z,69.61
2023-02-04T11:45:25.432Z,68.30
2023-02-04T11:47:52.265Z,68.65
2023-02-04T11:50:38.545Z,69.38
2023-02-04T11:53:05.594Z,70.64
2023-02-04T11:55:36.076Z,68.67
2023-02-04T11:58:03.414Z,68.79
2023-02-04T12:00:32.536Z,68.99
2023-02-04T12:03:07.907Z,70.00
2023-02-04T12:05:47.285Z,71.11
2023-02-04T12:08:25.177Z,70.89
2023-02-04T12:11:01.886Z,71.29
2023-02-04T12:13:30.941Z,70.74
2023-02-04T12:16:07.709Z,69.32
2023-02-04T12:18:35.297Z,68.58
2023-02-04T12:21:04.487Z,69.72
2023-02-04T12:23:31.486Z,70.32
2023-02-04T12:25:58.133Z,69.71
2023-02-04T12:28:25.917Z,69.97
2023-02-04T12:30:52.566Z,69.32
2023-02-04T12:33:19.538Z,69.99
2023-02-04T12:35:46.480Z,69.34
2023-02-04T12:38:13.098Z,68.89
2023-02-04T12:40:39.851Z,68.47
2023-02-04T12:43:06.696Z,67.98
2023-02-04T12:45:33.925Z,67.50
2023-02-04T12:48:00.967Z,68.49
2023-02-04T12:50:27.617Z,67.96
2023-02-04T12:52:58.184Z,66.67
2023-02-04T12:55:27.740Z,65.70
2023-02-04T12:57:56.241Z,66.36
2023-02-04T13:00:24.361Z,64.53
2023-02-04T13:02:55.182Z,63.98
2023-02-04T13:05:22.254Z,64.61
2023-02-04T13:07:48.913Z,65.31
2023-02-04T13:10:15.916Z,65.11
2023-02-04T13:12:46.145Z,64.59
2023-02-04T13:15:13.912Z,65.22
2023-02-04T13:17:40.760Z,64.84
2023-02-04T13:20:07.894Z,64.89
2023-02-04T13:22:34.518Z,64.96
2023-02-04T13:25:03.692Z,65.30
2023-02-04T13:27:31.959Z,65.17
2023-02-04T13:29:58.843Z,64.24
2023-02-04T13:32:25.593Z,65.51
2023-02-04T13:34:52.224Z,64.39
2023-02-04T13:37:18.825Z,64.85
2023-02-04T13:39:45.468Z,64.15
2023-02-04T13:42:12.099Z,62.75
2023-02-04T13:44:38.711Z,63.78
2023-02-04T13:47:05.382Z,63.80
2023-02-04T13:49:32.049Z,63.61
2023-02-04T13:51:58.662Z,64.40
2023-02-04T13:54:25.545Z,63.84
2023-02-04T13:56:52.228Z,63.34
2023-02-04T13:59:20.902Z,63.83
2023-02-04T14:01:47.747Z,63.09
2023-02-04T14:04:14.429Z,63.15
2023-02-04T14:06:43.803Z,63.42
2023-02-04T14:09:12.190Z,63.25
2023-02-04T14:11:39.411Z,63.75
2023-02-04T14:14:06.907Z,64.87
2023-02-04T14:16:34.486Z,63.29
2023-02-04T14:19:02.384Z,64.43
2023-02-04T14:21:29.079Z,63.63
2023-02-04T14:23:55.820Z,66.12
2023-02-04T14:26:22.393Z,69.68
2023-02-04T14:28:49.002Z,71.69
2023-02-04T14:31:15.634Z,72.30
2023-02-04T14:33:42.283Z,72.38
2023-02-04T14:36:09.121Z,73.10
2023-02-04T14:38:35.741Z,71.43
2023-02-04T14:41:02.405Z,69.89
2023-02-04T14:43:29.037Z,68.52
2023-02-04T14:45:55.896Z,68.45
2023-02-04T14:48:22.541Z,67.19
2023-02-04T14:50:49.131Z,66.21
2023-02-04T14:53:15.745Z,65.61
2023-02-04T14:55:42.383Z,65.89
2023-02-04T14:58:09.001Z,65.21
2023-02-04T15:00:38.777Z,65.41
2023-02-04T15:03:05.576Z,65.13
2023-02-04T15:05:32.405Z,64.21
2023-02-04T15:07:59.011Z,63.96
2023-02-04T15:10:25.719Z,63.42
2023-02-04T15:12:55.593Z,62.69
2023-02-04T15:15:22.589Z,62.43
2023-02-04T15:17:50.524Z,62.76
2023-02-04T15:20:17.543Z,63.00
2023-02-04T15:22:44.201Z,63.46
2023-02-04T15:25:13.058Z,62.13
2023-02-04T15:27:39.733Z,62.48
2023-02-04T15:30:06.557Z,63.06
2023-02-04T15:32:33.257Z,63.14
2023-02-04T15:34:59.901Z,63.39
2023-02-04T15:37:26.566Z,64.90
2023-02-04T15:39:53.492Z,64.66
2023-02-04T15:42:20.262Z,64.69
2023-02-04T15:44:46.920Z,63.96
2023-02-04T15:47:13.515Z,64.19
2023-02-04T15:49:40.163Z,62.72
2023-02-04T15:52:10.896Z,62.40
2023-02-04T15:54:40.352Z,62.46
2023-02-04T15:57:07.040Z,62.73
2023-02-04T15:59:33.633Z,62.01
2023-02-04T16:02:00.200Z,61.10
2023-02-04T16:04:26.871Z,61.06
2023-02-04T16:06:58.688Z,61.84
2023-02-04T16:09:26.383Z,61.61
2023-02-04T16:11:52.989Z,61.13
2023-02-04T16:14:19.606Z,60.87
2023-02-04T16:16:46.234Z,60.47
2023-02-04T16:19:12.903Z,61.04
2023-02-04T16:21:39.653Z,60.30
2023-02-04T16:24:06.603Z,59.41
2023-02-04T16:26:33.211Z,57.94
2023-02-04T16:28:59.771Z,58.15
2023-02-04T16:31:26.645Z,59.91
2023-02-04T16:33:53.304Z,59.86
2023-02-04T16:36:20.034Z,59.74
2023-02-04T16:38:46.634Z,60.29
2023-02-04T16:41:14.409Z,60.19
2023-02-04T16:43:41.616Z,60.17
2023-02-04T16:46:08.485Z,60.76
2023-02-04T16:48:36.568Z,60.53
2023-02-04T16:51:03.802Z,60.60
2023-02-04T16:53:30.452Z,59.64
2023-02-04T16:55:57.075Z,59.94
2023-02-04T16:58:23.794Z,61.35
2023-02-04T17:00:50.436Z,61.50
2023-02-04T17:03:17.494Z,59.32
2023-02-04T17:05:44.098Z,60.91
2023-02-04T17:08:13.573Z,60.76
2023-02-04T17:10:59.384Z,59.84
2023-02-04T17:13:26.070Z,58.71
2023-02-04T17:15:54.209Z,59.27
2023-02-04T17:18:20.857Z,58.92
2023-02-04T17:20:47.441Z,59.10
2023-02-04T17:23:14.143Z,59.75
2023-02-04T17:25:40.791Z,59.11
2023-02-04T17:28:07.530Z,59.20
2023-02-04T17:30:34.401Z,59.87
2023-02-04T17:33:01.019Z,59.54
2023-02-04T17:35:27.880Z,59.40
2023-02-04T17:37:54.659Z,59.68
2023-02-04T17:40:21.459Z,60.43
2023-02-04T17:42:48.045Z,60.40
2023-02-04T17:45:14.777Z,60.28
2023-02-04T17:47:41.471Z,59.75
2023-02-04T17:50:10.656Z,59.13
2023-02-04T17:52:38.181Z,59.61
2023-02-04T17:55:28.693Z,59.61
2023-02-04T17:57:56.545Z,59.60
2023-02-04T18:00:25.261Z,59.08
2023-02-04T18:02:52.636Z,57.67
2023-02-04T18:05:25.081Z,57.60
2023-02-04T18:08:16.443Z,58.54
2023-02-04T18:10:45.886Z,58.54
2023-02-04T18:13:31.818Z,58.25
2023-02-04T18:16:00.837Z,57.48
2023-02-04T18:18:35.950Z,56.01
2023-02-04T18:21:29.039Z,56.48
2023-02-04T18:24:10.973Z,56.41
2023-02-04T18:26:44.915Z,58.34
2023-02-04T18:29:34.146Z,57.32
2023-02-04T18:32:06.814Z,57.17
2023-02-04T18:34:38.472Z,56.96
2023-02-04T18:37:23.881Z,56.29
2023-02-04T18:39:50.661Z,56.41
2023-02-04T18:42:24.586Z,57.48
2023-02-04T18:44:52.614Z,56.72
2023-02-04T18:47:32.617Z,55.86
2023-02-04T18:50:00.794Z,56.05
2023-02-04T18:52:27.816Z,55.82
2023-02-04T18:54:59.153Z,57.15
2023-02-04T18:57:36.527Z,57.12
2023-02-04T19:00:09.311Z,57.72
2023-02-04T19:02:46.044Z,56.77
2023-02-04T19:05:36.484Z,57.10
2023-02-04T19:08:06.230Z,57.98
2023-02-04T19:10:37.759Z,57.57
2023-02-04T19:13:27.554Z,56.17
2023-02-04T19:16:04.847Z,57.04
2023-02-04T19:18:42.335Z,59.82
2023-02-04T19:21:25.849Z,58.90
2023-02-04T19:24:19.805Z,59.55
2023-02-04T19:26:53.821Z,59.52
2023-02-04T19:29:24.905Z,58.83
2023-02-04T19:31:56.039Z,59.97
2023-02-04T19:34:33.406Z,62.90
2023-02-04T19:37:00.253Z,63.39
2023-02-04T19:39:40.397Z,65.37
2023-02-04T19:42:22.636Z,66.36
2023-02-04T19:44:51.625Z,67.49
2023-02-04T19:47:46.042Z,69.14
2023-02-04T19:50:12.680Z,70.77
2023-02-04T19:53:03.076Z,68.84
2023-02-04T19:55:42.751Z,67.44
2023-02-04T19:58:22.249Z,66.68
2023-02-04T20:00:52.015Z,66.26
2023-02-04T20:03:37.404Z,66.36
2023-02-04T20:06:10.232Z,64.62
2023-02-04T20:08:44.890Z,66.40
2023-02-04T20:11:34.637Z,65.46
2023-02-04T20:14:16.003Z,64.56
2023-02-04T20:16:59.354Z,65.73
2023-02-04T20:19:31.616Z,65.65
2023-02-04T20:22:20.912Z,65.19
2023-02-04T20:24:54.365Z,64.64
2023-02-04T20:27:20.856Z,66.81
2023-02-04T20:29:48.812Z,65.14
2023-02-04T20:32:26.442Z,65.54
2023-02-04T20:35:15.016Z,68.54
2023-02-04T20:37:42.688Z,68.62
2023-02-04T20:40:33.059Z,67.93
2023-02-04T20:43:06.275Z,68.53
2023-02-04T20:45:41.169Z,68.47
2023-02-04T20:48:16.690Z,67.56
2023-02-04T20:50:54.119Z,66.86
2023-02-04T20:53:41.128Z,67.67
2023-02-04T20:56:24.960Z,67.23
2023-02-04T20:58:55.323Z,67.50
2023-02-04T21:01:38.592Z,66.27
2023-02-04T21:04:23.419Z,66.68
2023-02-04T21:06:51.638Z,65.81
2023-02-04T21:09:25.541Z,67.25
2023-02-04T21:11:54.205Z,66.56
2023-02-04T21:14:21.470Z,66.73
2023-02-04T21:16:48.436Z,66.78
2023-02-04T21:19:15.239Z,65.12
2023-02-04T21:21:42.404Z,64.73
2023-02-04T21:24:09.667Z,63.84
2023-02-04T21:26:36.426Z,62.78
2023-02-04T21:29:03.181Z,60.69
2023-02-04T21:31:30.064Z,61.25
2023-02-04T21:33:57.194Z,62.57
2023-02-04T21:36:27.812Z,62.85
2023-02-04T21:38:55.292Z,63.45
2023-02-04T21:41:22.152Z,62.46
2023-02-04T21:43:49.816Z,62.68
2023-02-04T21:46:17.678Z,62.35
2023-02-04T21:48:45.015Z,63.76
2023-02-04T21:51:12.949Z,65.87
2023-02-04T21:53:39.687Z,65.63
2023-02-04T21:56:07.608Z,64.98
2023-02-04T21:58:34.338Z,66.30
2023-02-04T22:01:01.092Z,65.64
2023-02-04T22:03:27.945Z,65.36
2023-02-04T22:05:54.655Z,66.59
2023-02-04T22:08:21.303Z,67.09
2023-02-04T22:10:47.981Z,65.26
2023-02-04T22:13:33.052Z,64.87
2023-02-04T22:15:59.763Z,64.25
2023-02-04T22:18:26.503Z,63.80
2023-02-04T22:20:53.121Z,64.31
2023-02-04T22:23:19.679Z,64.81
2023-02-04T22:25:46.219Z,63.43
2023-02-04T22:28:13.002Z,64.32
2023-02-04T22:30:39.686Z,63.15
2023-02-04T22:33:06.388Z,62.83
2023-02-04T22:35:35.458Z,62.26
2023-02-04T22:38:03.402Z,61.05
2023-02-04T22:40:30.081Z,62.14
2023-02-04T22:42:56.772Z,62.62
2023-02-04T22:45:23.351Z,61.41
2023-02-04T22:47:53.003Z,61.89
2023-02-04T22:50:19.774Z,62.58
2023-02-04T22:52:46.474Z,61.91
2023-02-04T22:55:13.269Z,60.28
2023-02-04T22:57:39.853Z,59.81
2023-02-04T23:00:09.165Z,59.04
2023-02-04T23:02:35.859Z,59.18
2023-02-04T23:05:03.045Z,59.75
2023-02-04T23:07:29.676Z,60.27
2023-02-04T23:09:56.340Z,59.98
2023-02-04T23:12:23.451Z,60.73
2023-02-04T23:14:50.660Z,61.89
2023-02-04T23:17:18.506Z,61.63
2023-02-04T23:19:45.484Z,61.20
2023-02-04T23:22:14.091Z,61.12
2023-02-04T23:24:42.009Z,62.35
2023-02-04T23:27:11.277Z,62.85
2023-02-04T23:29:39.557Z,62.32
2023-02-04T23:32:06.822Z,64.23
2023-02-04T23:34:33.903Z,65.91
2023-02-04T23:37:00.758Z,66.28
2023-02-04T23:39:27.586Z,67.95
2023-02-04T23:41:54.208Z,66.13
2023-02-04T23:44:20.807Z,66.34
2023-02-04T23:46:47.483Z,67.43
2023-02-04T23:49:14.332Z,68.31
2023-02-04T23:51:41.475Z,69.04
2023-02-04T23:54:08.043Z,68.06
2023-02-04T23:56:34.897Z,68.41
2023-02-04T23:59:01.600Z,68.67
